Time;durP1;ratioP1;P1;durP2;ratioP2;P2;SDS_P1;SDS_P2;PMS_P1;PMS_P2;Temp;Humidity;BMP_temperature;BMP_pressure;BME280_temperature;BME280_humidity;BME280_pressure;Samples;Min_cycle;Max_cycle;Signal;HPM_P1;HPM_P2
2021/06/08 00:03:32;;;;;;;4.60;3.70;;;21.90;63.10;;;;;;10411808;28;20421;-61
2021/06/08 00:08:33;;;;;;;4.45;4.03;;;21.90;63.00;;;;;;10413533;28;20026;-62
2021/06/08 00:13:33;;;;;;;5.18;4.03;;;21.90;62.90;;;;;;10418721;28;20033;-62
2021/06/08 00:18:34;;;;;;;4.22;3.83;;;21.90;62.90;;;;;;10419919;28;20425;-61
2021/06/08 00:23:35;;;;;;;4.22;3.83;;;21.90;62.90;;;;;;10419761;28;20482;-62
2021/06/08 00:28:36;;;;;;;3.90;3.45;;;21.90;62.80;;;;;;10419279;28;20030;-62
2021/06/08 00:33:36;;;;;;;4.18;3.78;;;21.90;62.90;;;;;;10419367;28;20049;-61
2021/06/08 00:38:37;;;;;;;5.63;4.35;;;21.80;62.80;;;;;;10419075;28;20498;-61
2021/06/08 00:43:38;;;;;;;5.88;3.58;;;21.80;62.80;;;;;;10427468;28;20026;-62
2021/06/08 00:48:39;;;;;;;3.83;3.38;;;21.80;62.70;;;;;;10418637;28;20052;-62
2021/06/08 00:53:40;;;;;;;5.18;3.65;;;21.80;62.70;;;;;;10418363;28;20117;-62
2021/06/08 00:58:40;;;;;;;5.05;3.65;;;21.80;62.80;;;;;;10417087;28;20127;-61
2021/06/08 01:03:41;;;;;;;4.40;4.00;;;21.80;62.70;;;;;;10418213;28;20088;-62
2021/06/08 01:08:42;;;;;;;4.47;4.00;;;21.80;62.70;;;;;;10417914;28;20028;-62
2021/06/08 01:13:43;;;;;;;4.10;3.33;;;21.80;62.60;;;;;;10404750;28;20108;-62
2021/06/08 01:18:44;;;;;;;5.15;3.70;;;21.80;62.50;;;;;;10417191;28;20087;-62
2021/06/08 01:23:45;;;;;;;4.32;3.70;;;21.80;62.30;;;;;;10417190;28;20496;-61
2021/06/08 01:28:46;;;;;;;4.28;3.88;;;21.80;62.30;;;;;;10416994;28;20531;-62
2021/06/08 01:33:47;;;;;;;4.03;3.63;;;21.80;62.10;;;;;;10416105;28;20076;-61
2021/06/08 01:38:50;;;;;;;4.40;4.00;;;21.80;62.10;;;;;;10414997;28;20096;-61
2021/06/08 01:43:52;;;;;;;4.00;3.60;;;21.80;62.00;;;;;;10424342;28;20029;-61
2021/06/08 01:48:53;;;;;;;4.30;3.38;;;21.80;62.00;;;;;;10416496;28;20113;-61
2021/06/08 01:54:16;;;;;;;4.18;3.65;;;21.70;61.90;;;;;;10416293;28;20494;-61
2021/06/08 01:59:29;;;;;;;4.57;4.10;;;21.70;61.80;;;;;;10415560;28;20418;-61
2021/06/08 02:04:46;;;;;;;5.72;4.13;;;21.70;61.80;;;;;;10401581;28;20126;-62
2021/06/08 02:10:20;;;;;;;4.03;3.58;;;21.70;61.60;;;;;;10411460;28;20029;-61
2021/06/08 02:15:27;;;;;;;3.80;3.25;;;21.70;61.70;;;;;;10411371;28;20100;-62
2021/06/08 02:20:33;;;;;;;4.57;3.53;;;21.70;61.60;;;;;;10414915;28;20026;-62
2021/06/08 02:25:34;;;;;;;3.63;3.13;;;21.70;61.60;;;;;;10413725;28;20033;-62
2021/06/08 02:30:36;;;;;;;3.78;3.38;;;21.70;61.60;;;;;;10412975;28;20021;-61
2021/06/08 02:35:37;;;;;;;4.40;3.83;;;21.70;61.60;;;;;;10413667;28;20040;-61
2021/06/08 02:40:39;;;;;;;4.07;3.63;;;21.70;61.40;;;;;;10413582;28;20145;-61
2021/06/08 02:45:41;;;;;;;4.72;3.78;;;21.70;61.40;;;;;;10419200;28;20549;-62
2021/06/08 02:50:46;;;;;;;4.65;3.63;;;21.70;61.30;;;;;;10414240;28;20446;-62
2021/06/08 02:55:47;;;;;;;4.68;3.70;;;21.60;61.20;;;;;;10414774;28;20075;-62
2021/06/08 03:00:48;;;;;;;3.88;3.35;;;21.60;61.10;;;;;;10413887;28;20421;-61
2021/06/08 03:06:09;;;;;;;3.30;3.00;;;21.60;61.10;;;;;;10412444;28;20072;-61
2021/06/08 03:11:19;;;;;;;3.58;3.03;;;21.60;61.00;;;;;;10410038;28;20532;-60
2021/06/08 03:16:21;;;;;;;4.32;2.80;;;21.60;61.00;;;;;;10411233;28;20087;-61
2021/06/08 03:21:31;;;;;;;4.03;3.53;;;21.60;61.00;;;;;;10412402;28;20053;-61
2021/06/08 03:26:35;;;;;;;4.20;3.80;;;21.60;60.90;;;;;;10413719;28;20033;-62
2021/06/08 03:31:39;;;;;;;3.65;3.35;;;21.60;60.90;;;;;;10412393;28;20030;-62
2021/06/08 03:36:41;;;;;;;3.80;3.20;;;21.50;60.70;;;;;;10412269;28;20038;-62
2021/06/08 03:41:43;;;;;;;4.10;3.65;;;21.60;60.70;;;;;;10420928;28;20041;-61
2021/06/08 03:46:45;;;;;;;3.80;3.50;;;21.50;60.70;;;;;;10421136;28;20025;-60
2021/06/08 03:51:54;;;;;;;3.83;3.42;;;21.50;60.70;;;;;;10419777;28;20029;-62
2021/06/08 03:56:57;;;;;;;3.60;3.03;;;21.50;60.70;;;;;;10419532;28;20565;-62
2021/06/08 04:01:59;;;;;;;4.28;3.60;;;21.50;60.60;;;;;;10420628;28;20079;-62
2021/06/08 04:07:00;;;;;;;5.65;3.70;;;21.50;60.70;;;;;;10419425;28;20132;-62
2021/06/08 04:12:01;;;;;;;4.05;3.60;;;21.50;60.70;;;;;;10405805;28;20112;-61
2021/06/08 04:17:02;;;;;;;5.40;4.25;;;21.50;60.70;;;;;;10419083;28;20025;-61
2021/06/08 04:22:03;;;;;;;4.65;3.08;;;21.50;60.70;;;;;;10418415;28;20034;-62
2021/06/08 04:27:04;;;;;;;4.13;3.28;;;21.50;60.80;;;;;;10416788;28;20500;-61
2021/06/08 04:32:05;;;;;;;4.47;3.45;;;21.50;60.80;;;;;;10417021;28;20649;-61
2021/06/08 04:37:06;;;;;;;4.40;3.03;;;21.50;60.70;;;;;;10416556;28;20251;-62
2021/06/08 04:42:10;;;;;;;4.55;3.65;;;21.50;60.70;;;;;;10419505;28;20364;-62
2021/06/08 04:47:12;;;;;;;3.28;2.90;;;21.50;60.80;;;;;;10418505;28;20022;-61
2021/06/08 04:52:13;;;;;;;3.85;3.30;;;21.50;60.70;;;;;;10418120;28;20033;-60
2021/06/08 04:57:16;;;;;;;5.28;4.05;;;21.50;60.80;;;;;;10417776;28;20033;-59
2021/06/08 05:02:28;;;;;;;4.78;4.22;;;21.50;62.20;;;;;;10417974;28;20130;-60
2021/06/08 05:07:30;;;;;;;6.20;3.60;;;21.50;62.20;;;;;;10433332;28;20037;-60
2021/06/08 05:12:33;;;;;;;4.72;3.80;;;21.60;62.70;;;;;;10415799;28;20025;-59
2021/06/08 05:17:36;;;;;;;13.90;3.83;;;21.60;62.70;;;;;;10415793;28;20028;-58
2021/06/08 05:22:37;;;;;;;9.85;3.53;;;21.60;62.80;;;;;;10415769;28;20120;-58
2021/06/08 05:27:38;;;;;;;8.70;4.50;;;21.60;64.20;;;;;;10416171;28;20029;-60
2021/06/08 05:32:39;;;;;;;4.75;3.72;;;21.70;63.70;;;;;;10415698;28;20509;-59
2021/06/08 05:37:43;;;;;;;7.85;3.78;;;21.70;63.60;;;;;;10415825;28;20029;-59
2021/06/08 05:42:46;;;;;;;9.07;4.25;;;21.60;63.30;;;;;;10418492;28;20416;-61
2021/06/08 05:47:47;;;;;;;7.45;4.13;;;21.60;63.20;;;;;;10416116;28;20497;-60
2021/06/08 05:52:48;;;;;;;12.15;3.88;;;21.60;63.20;;;;;;10416117;28;20028;-56
2021/06/08 05:57:54;;;;;;;6.97;4.38;;;21.60;63.00;;;;;;10416113;28;20147;-59
2021/06/08 06:02:56;;;;;;;21.38;5.10;;;21.60;63.20;;;;;;10408042;28;20037;-58
2021/06/08 06:07:58;;;;;;;11.23;4.30;;;21.60;63.30;;;;;;10411134;28;20040;-59
2021/06/08 06:13:01;;;;;;;10.93;4.10;;;21.60;63.80;;;;;;10403372;28;20548;-59
2021/06/08 06:18:03;;;;;;;6.90;3.78;;;21.60;63.80;;;;;;10408282;28;20080;-58
2021/06/08 06:23:03;;;;;;;5.80;3.35;;;21.60;63.70;;;;;;10412052;28;20029;-57
2021/06/08 06:28:04;;;;;;;4.40;3.55;;;21.60;63.50;;;;;;10414364;28;20021;-58
2021/06/08 06:33:05;;;;;;;5.90;3.63;;;21.60;63.50;;;;;;10410744;28;20116;-59
2021/06/08 06:38:08;;;;;;;7.18;3.50;;;21.60;63.60;;;;;;10395676;28;20113;-58
2021/06/08 06:43:17;;;;;;;16.27;4.70;;;21.60;63.60;;;;;;10399757;28;20498;-58
2021/06/08 06:48:18;;;;;;;3.47;3.03;;;21.60;63.60;;;;;;10413448;28;20488;-58
2021/06/08 06:53:19;;;;;;;5.25;3.65;;;21.60;63.70;;;;;;10413982;28;20105;-59
2021/06/08 06:58:22;;;;;;;4.57;2.72;;;21.60;63.20;;;;;;10413622;28;20056;-58
2021/06/08 07:03:31;;;;;;;7.15;3.55;;;21.60;62.90;;;;;;10413058;28;20038;-60
2021/06/08 07:08:33;;;;;;;6.63;3.30;;;21.60;62.60;;;;;;10413974;28;20083;-61
2021/06/08 07:13:35;;;;;;;4.18;3.10;;;21.60;62.60;;;;;;10399583;28;20087;-61
2021/06/08 07:18:37;;;;;;;6.15;2.63;;;21.60;62.60;;;;;;10416560;28;20025;-61
2021/06/08 07:23:39;;;;;;;5.32;2.97;;;21.70;62.80;;;;;;10421973;28;20025;-61
2021/06/08 07:28:40;;;;;;;3.70;2.10;;;21.70;62.50;;;;;;10420982;28;20026;-61
2021/06/08 07:33:51;;;;;;;5.82;3.20;;;21.70;62.70;;;;;;10420293;28;20041;-61
2021/06/08 07:39:23;;;;;;;4.97;3.03;;;21.70;62.80;;;;;;10420299;28;20080;-61
2021/06/08 07:44:33;;;;;;;3.55;2.55;;;21.70;62.60;;;;;;10429185;28;20076;-61
2021/06/08 07:49:35;;;;;;;3.20;2.15;;;21.70;62.60;;;;;;10420356;28;20030;-61
2021/06/08 07:54:37;;;;;;;2.92;2.40;;;21.70;62.60;;;;;;10420825;28;20025;-61
2021/06/08 07:59:41;;;;;;;4.82;2.83;;;21.70;62.60;;;;;;10419728;28;20033;-61
2021/06/08 08:04:48;;;;;;;3.65;2.75;;;21.80;62.60;;;;;;10420699;28;20053;-61
2021/06/08 08:09:55;;;;;;;3.90;2.17;;;21.80;62.60;;;;;;10420713;28;20116;-61
2021/06/08 08:14:56;;;;;;;3.97;2.42;;;21.80;62.60;;;;;;10420216;28;20044;-61
2021/06/08 08:19:59;;;;;;;3.95;2.25;;;21.70;62.60;;;;;;10418260;28;20037;-61
2021/06/08 08:25:00;;;;;;;4.40;2.55;;;21.80;62.60;;;;;;10418484;28;20029;-61
2021/06/08 08:30:01;;;;;;;2.92;2.38;;;21.80;62.60;;;;;;10418784;28;20036;-61
2021/06/08 08:35:02;;;;;;;3.33;2.47;;;21.80;62.70;;;;;;10418646;28;20025;-61
2021/06/08 08:40:03;;;;;;;3.00;2.70;;;21.80;62.70;;;;;;10418799;28;20490;-61
2021/06/08 08:45:05;;;;;;;3.80;2.30;;;21.80;62.60;;;;;;10427455;28;20037;-61
2021/06/08 08:50:06;;;;;;;3.15;2.40;;;21.80;62.60;;;;;;10434486;28;20036;-61
2021/06/08 08:55:09;;;;;;;4.35;2.10;;;21.80;62.60;;;;;;10417344;28;20044;-61
2021/06/08 09:00:10;;;;;;;4.47;2.42;;;21.80;62.60;;;;;;10417169;28;20125;-61
2021/06/08 09:05:11;;;;;;;3.90;2.20;;;21.80;62.70;;;;;;10418088;28;20389;-61
2021/06/08 09:10:13;;;;;;;2.08;1.70;;;21.80;62.60;;;;;;10416851;28;20033;-61
2021/06/08 09:15:14;;;;;;;3.50;2.15;;;21.80;62.60;;;;;;10417918;28;20037;-61
2021/06/08 09:20:15;;;;;;;3.13;2.13;;;21.80;62.50;;;;;;10417618;28;20025;-61
2021/06/08 09:25:36;;;;;;;4.40;2.60;;;21.80;62.30;;;;;;10417332;28;20029;-61
2021/06/08 09:30:36;;;;;;;4.20;2.30;;;21.80;62.40;;;;;;10417131;28;20513;-61
2021/06/08 09:35:37;;;;;;;3.20;2.53;;;21.80;62.30;;;;;;10416968;28;20043;-61
2021/06/08 09:40:39;;;;;;;4.05;2.60;;;21.90;62.30;;;;;;10416494;28;20085;-61
2021/06/08 09:45:49;;;;;;;3.08;2.42;;;21.90;62.20;;;;;;10425106;28;20033;-61
2021/06/08 09:50:50;;;;;;;3.20;2.40;;;21.90;62.10;;;;;;10416920;28;20026;-61
2021/06/08 09:55:55;;;;;;;3.42;2.70;;;21.90;62.10;;;;;;10416254;28;20051;-61
2021/06/08 10:01:12;;;;;;;2.92;2.60;;;21.90;62.20;;;;;;10415005;28;20037;-61
2021/06/08 10:06:34;;;;;;;2.83;2.53;;;21.90;61.90;;;;;;10403758;28;20449;-61
2021/06/08 10:11:37;;;;;;;3.33;2.60;;;21.90;62.20;;;;;;10415566;28;20025;-61
2021/06/08 10:16:40;;;;;;;3.53;2.58;;;21.80;62.10;;;;;;10415401;28;20041;-61
2021/06/08 10:21:48;;;;;;;3.75;2.70;;;21.90;61.90;;;;;;10415309;28;20036;-62
2021/06/08 10:26:55;;;;;;;3.95;2.63;;;21.90;62.20;;;;;;10414417;28;20531;-61
2021/06/08 10:31:59;;;;;;;3.60;2.70;;;21.90;62.10;;;;;;10413935;28;20017;-62
2021/06/08 10:37:00;;;;;;;3.60;2.53;;;21.90;62.00;;;;;;10413915;28;20034;-61
2021/06/08 10:42:01;;;;;;;3.60;3.30;;;21.90;62.00;;;;;;10421059;28;20045;-61
2021/06/08 10:47:20;;;;;;;3.35;2.22;;;21.90;61.90;;;;;;10414272;28;20041;-61
2021/06/08 10:52:21;;;;;;;3.90;2.90;;;21.90;62.00;;;;;;10413071;28;20113;-61
2021/06/08 10:57:41;;;;;;;3.85;2.90;;;21.90;61.90;;;;;;10414518;28;20029;-61
2021/06/08 11:02:43;;;;;;;;;;;22.00;61.80;;;;;;10412124;28;20044;-62
2021/06/08 11:07:47;;;;;;;6.32;2.67;;;22.00;62.60;;;;;;10412882;28;20003;-62
2021/06/08 11:12:48;;;;;;;5.13;2.80;;;22.00;62.00;;;;;;10414081;28;20041;-58
2021/06/08 11:17:49;;;;;;;3.08;2.55;;;22.00;61.90;;;;;;10413598;28;20101;-59
2021/06/08 11:22:55;;;;;;;3.65;2.63;;;22.10;62.10;;;;;;10411597;28;20172;-62
2021/06/08 11:28:09;;;;;;;4.32;2.78;;;22.10;62.00;;;;;;10410014;28;20026;-63
2021/06/08 11:33:47;;;;;;;3.72;3.20;;;22.10;61.90;;;;;;10412429;28;20397;-62
2021/06/08 11:38:56;;;;;;;2.78;2.20;;;22.10;61.90;;;;;;10410514;28;20084;-62
2021/06/08 11:43:59;;;;;;;3.78;2.90;;;22.10;61.80;;;;;;10411444;28;20064;-61
2021/06/08 11:49:17;;;;;;;6.65;2.97;;;22.10;61.70;;;;;;10408868;28;20545;-61
2021/06/08 11:54:25;;;;;;;6.97;2.63;;;22.10;61.80;;;;;;10409147;28;20030;-60
2021/06/08 11:59:31;;;;;;;4.70;2.42;;;22.20;61.80;;;;;;10411892;28;20037;-63
2021/06/08 12:05:05;;;;;;;4.45;2.78;;;22.20;61.50;;;;;;10415370;28;20112;-62
2021/06/08 12:10:07;;;;;;;3.28;2.55;;;22.20;61.60;;;;;;10419484;28;20030;-62
2021/06/08 12:15:08;;;;;;;3.60;2.60;;;22.20;61.60;;;;;;10417466;28;20034;-63
2021/06/08 12:20:10;;;;;;;4.18;3.05;;;22.30;61.70;;;;;;10406981;28;20037;-62
2021/06/08 12:25:12;;;;;;;3.63;2.90;;;22.30;61.60;;;;;;10414784;28;20489;-61
2021/06/08 12:30:29;;;;;;;3.90;2.97;;;22.30;61.70;;;;;;10417127;28;20863;-62
2021/06/08 12:35:42;;;;;;;5.15;3.03;;;22.30;61.70;;;;;;10417621;28;20033;-62
2021/06/08 12:40:57;;;;;;;3.92;2.83;;;22.30;61.70;;;;;;10416694;28;20045;-62
2021/06/08 12:45:59;;;;;;;4.53;2.80;;;22.30;61.60;;;;;;10424998;28;20041;-62
2021/06/08 12:51:12;;;;;;;3.30;2.75;;;22.30;61.50;;;;;;10417767;28;20017;-62
2021/06/08 12:56:13;;;;;;;5.53;3.47;;;22.40;61.70;;;;;;10415368;28;20037;-62
2021/06/08 13:01:14;;;;;;;8.50;3.33;;;22.40;61.70;;;;;;10416474;28;20029;-62
2021/06/08 13:06:19;;;;;;;11.57;2.92;;;22.40;61.70;;;;;;10416648;28;20037;-61
2021/06/08 13:11:27;;;;;;;8.60;4.00;;;22.40;61.90;;;;;;10403558;28;20087;-61
2021/06/08 13:16:36;;;;;;;7.38;3.03;;;22.50;62.00;;;;;;10417116;28;20124;-59
2021/06/08 13:21:37;;;;;;;5.35;3.30;;;22.50;61.90;;;;;;10418098;28;20065;-59
2021/06/08 13:26:38;;;;;;;5.82;3.70;;;22.50;62.00;;;;;;10413194;28;20490;-61
2021/06/08 13:31:41;;;;;;;5.28;3.33;;;22.50;62.10;;;;;;10416412;28;20419;-61
2021/06/08 13:36:44;;;;;;;6.28;3.75;;;22.50;61.90;;;;;;10416441;28;20033;-60
2021/06/08 13:41:49;;;;;;;7.15;3.33;;;22.50;61.80;;;;;;10425028;28;20045;-60
2021/06/08 13:46:54;;;;;;;7.45;3.85;;;22.50;61.90;;;;;;10414774;28;20056;-60
2021/06/08 13:51:54;;;;;;;5.53;3.47;;;22.50;61.90;;;;;;10416157;28;20025;-61
2021/06/08 13:57:08;;;;;;;4.32;3.58;;;22.60;61.80;;;;;;10416042;28;20116;-61
2021/06/08 14:02:09;;;;;;;6.05;3.40;;;22.60;61.70;;;;;;10415608;28;20037;-58
2021/06/08 14:07:12;;;;;;;6.25;3.72;;;22.50;61.60;;;;;;10414999;28;20484;-61
2021/06/08 14:12:13;;;;;;;6.20;4.75;;;22.50;61.60;;;;;;10413757;28;20489;-62
2021/06/08 14:17:20;;;;;;;7.10;3.58;;;22.50;61.60;;;;;;10413646;28;20037;-62
2021/06/08 14:22:20;;;;;;;7.47;3.67;;;22.50;61.70;;;;;;10413839;28;20037;-62
2021/06/08 14:27:21;;;;;;;4.60;3.10;;;22.50;61.80;;;;;;10413046;28;20037;-62
2021/06/08 14:32:22;;;;;;;5.43;3.40;;;22.50;61.70;;;;;;10414715;28;20596;-62
2021/06/08 14:37:22;;;;;;;5.13;3.50;;;22.50;62.20;;;;;;10414671;28;20121;-61
2021/06/08 14:42:23;;;;;;;4.82;3.78;;;22.50;61.70;;;;;;10421890;28;20120;-60
2021/06/08 14:47:24;;;;;;;5.65;4.47;;;22.50;60.80;;;;;;10414151;28;20037;-59
2021/06/08 14:52:25;;;;;;;6.50;3.97;;;22.50;60.90;;;;;;10411990;28;20103;-60
2021/06/08 14:57:25;;;;;;;6.43;4.47;;;22.40;60.50;;;;;;10416953;28;20111;-62
2021/06/08 15:02:26;;;;;;;7.30;6.25;;;22.50;60.20;;;;;;10418016;28;20045;-60
2021/06/08 15:07:27;;;;;;;4.95;4.45;;;22.50;60.40;;;;;;10413761;28;20041;-62
2021/06/08 15:12:28;;;;;;;5.80;4.82;;;22.50;60.30;;;;;;10409941;28;20033;-62
2021/06/08 15:17:29;;;;;;;6.50;4.63;;;22.50;60.10;;;;;;10413718;28;20056;-62
2021/06/08 15:22:30;;;;;;;9.48;4.82;;;22.40;60.30;;;;;;10415383;28;20112;-64
2021/06/08 15:27:32;;;;;;;8.15;5.25;;;22.50;60.70;;;;;;10413677;28;20029;-66
2021/06/08 15:32:33;;;;;;;9.35;4.57;;;22.50;60.70;;;;;;10412395;28;20029;-66
2021/06/08 15:37:33;;;;;;;7.18;4.88;;;22.40;61.10;;;;;;10412820;28;20036;-66
2021/06/08 15:42:35;;;;;;;5.13;4.30;;;22.40;61.30;;;;;;10429457;28;20053;-66
2021/06/08 15:47:36;;;;;;;7.13;4.35;;;22.40;61.30;;;;;;10419850;28;20034;-65
2021/06/08 15:52:37;;;;;;;5.10;4.60;;;22.40;61.40;;;;;;10421077;28;20425;-66
2021/06/08 15:57:37;;;;;;;5.15;4.60;;;22.40;61.30;;;;;;10420783;28;20075;-63
2021/06/08 16:02:38;;;;;;;6.93;4.35;;;22.40;61.20;;;;;;10420893;28;20021;-63
2021/06/08 16:07:39;;;;;;;5.55;4.75;;;22.40;61.50;;;;;;10420554;28;20036;-60
2021/06/08 16:12:39;;;;;;;8.82;4.80;;;22.40;61.10;;;;;;10413135;28;20026;-60
2021/06/08 16:17:40;;;;;;;12.27;8.40;;;22.50;61.10;;;;;;10419656;28;20109;-63
2021/06/08 16:22:41;;;;;;;8.02;5.70;;;22.50;61.50;;;;;;10418400;28;20442;-65
2021/06/08 16:27:41;;;;;;;10.40;5.15;;;22.50;60.90;;;;;;10417981;28;20048;-65
2021/06/08 16:32:42;;;;;;;8.55;5.13;;;22.40;61.00;;;;;;10419610;28;20057;-66
2021/06/08 16:37:43;;;;;;;7.78;5.63;;;22.50;61.10;;;;;;10419400;28;20063;-65
2021/06/08 16:42:44;;;;;;;5.38;4.80;;;22.40;61.10;;;;;;10427233;28;20064;-66
2021/06/08 16:47:45;;;;;;;8.50;6.38;;;22.50;61.10;;;;;;10425935;28;20108;-64
2021/06/08 16:58:05;;;;;;;5.97;5.13;;;22.50;60.80;;;;;;10416516;28;20029;-65
2021/06/08 17:03:07;;;;;;;8.75;6.10;;;22.40;60.80;;;;;;10418148;28;20112;-65
2021/06/08 17:08:08;;;;;;;5.78;4.88;;;22.40;60.90;;;;;;10418097;28;20044;-65
2021/06/08 17:13:09;;;;;;;7.25;5.70;;;22.40;60.90;;;;;;10417964;28;20044;-64
2021/06/08 17:18:10;;;;;;;5.57;4.57;;;22.40;60.80;;;;;;10417949;28;20446;-65
2021/06/08 17:23:11;;;;;;;6.40;4.32;;;22.50;61.20;;;;;;10404945;28;20480;-64
2021/06/08 17:28:11;;;;;;;8.63;5.78;;;22.40;61.20;;;;;;10414964;28;20049;-66
2021/06/08 17:33:12;;;;;;;8.90;5.95;;;22.50;61.10;;;;;;10415645;28;20762;-65
2021/06/08 17:38:13;;;;;;;8.88;4.82;;;22.50;60.80;;;;;;10417064;28;20061;-65
2021/06/08 17:43:13;;;;;;;5.82;5.00;;;22.40;60.90;;;;;;10417715;28;20124;-65
2021/06/08 17:48:14;;;;;;;7.22;5.47;;;22.40;61.10;;;;;;10416357;28;20064;-65
2021/06/08 17:53:15;;;;;;;6.45;5.53;;;22.40;60.90;;;;;;10415486;28;20160;-66
2021/06/08 17:58:16;;;;;;;5.55;4.90;;;22.40;60.80;;;;;;10415508;28;20120;-62
2021/06/08 18:03:16;;;;;;;6.07;5.47;;;22.40;61.50;;;;;;10415794;28;20404;-61
2021/06/08 18:08:17;;;;;;;6.60;5.88;;;22.50;61.90;;;;;;10415450;28;20155;-61
2021/06/08 18:13:18;;;;;;;7.47;5.28;;;22.50;61.00;;;;;;10411688;28;20163;-61
2021/06/08 18:23:35;;;;;;;6.65;5.35;;;22.50;61.20;;;;;;10415116;28;20064;-62
2021/06/08 18:28:35;;;;;;;6.03;5.07;;;22.50;61.60;;;;;;10414052;28;20037;-61
2021/06/08 18:33:36;;;;;;;7.25;5.88;;;22.40;61.60;;;;;;10414817;28;20041;-61
2021/06/08 18:38:37;;;;;;;6.43;5.13;;;22.50;63.30;;;;;;10414713;28;20036;-61
2021/06/08 18:43:37;;;;;;;7.00;4.93;;;22.50;63.20;;;;;;10423044;28;20431;-61
2021/06/08 18:48:38;;;;;;;7.30;5.45;;;22.50;62.20;;;;;;10414209;28;20037;-61
2021/06/08 18:53:43;;;;;;;6.18;5.57;;;22.50;62.20;;;;;;10414550;28;20540;-61
2021/06/08 18:58:46;;;;;;;6.30;4.57;;;22.50;62.30;;;;;;10413937;28;20037;-61
2021/06/08 19:03:47;;;;;;;8.60;5.78;;;22.50;62.30;;;;;;10412421;28;20034;-63
2021/06/08 19:08:48;;;;;;;6.03;5.15;;;22.50;63.70;;;;;;10413093;28;20480;-61
2021/06/08 19:13:48;;;;;;;10.80;4.97;;;22.50;63.20;;;;;;10404837;28;20037;-61
2021/06/08 19:18:49;;;;;;;8.35;4.47;;;22.60;63.00;;;;;;10420513;28;20120;-61
2021/06/08 19:23:50;;;;;;;10.65;6.05;;;22.60;63.20;;;;;;10421199;28;20396;-61
2021/06/08 19:28:51;;;;;;;9.18;5.40;;;22.60;64.30;;;;;;10421842;28;20026;-61
2021/06/08 19:33:53;;;;;;;8.10;5.43;;;22.60;65.10;;;;;;10420174;28;20033;-62
2021/06/08 19:38:54;;;;;;;10.02;5.68;;;22.60;64.90;;;;;;10421282;28;20032;-61
2021/06/08 19:43:54;;;;;;;13.98;6.50;;;22.60;66.10;;;;;;10424660;28;20060;-64
2021/06/08 19:48:55;;;;;;;13.68;7.57;;;22.60;66.00;;;;;;10415656;28;20033;-61
2021/06/08 19:53:56;;;;;;;14.48;6.25;;;22.60;66.00;;;;;;10416990;28;20041;-59
2021/06/08 19:58:57;;;;;;;13.38;5.38;;;22.60;66.10;;;;;;10416713;28;20459;-60
2021/06/08 20:03:57;;;;;;;11.32;6.53;;;22.60;66.30;;;;;;10417730;28;20112;-64
2021/06/08 20:08:59;;;;;;;9.55;5.97;;;22.60;66.20;;;;;;10419457;28;20029;-61
2021/06/08 20:13:59;;;;;;;9.35;5.85;;;22.60;66.00;;;;;;10417264;28;20037;-62
2021/06/08 20:19:02;;;;;;;7.22;6.43;;;22.50;65.20;;;;;;10420116;28;20064;-62
2021/06/08 20:24:03;;;;;;;8.32;6.32;;;22.50;65.40;;;;;;10416855;28;20037;-62
2021/06/08 20:29:04;;;;;;;7.15;5.57;;;22.50;65.50;;;;;;10417821;28;20116;-62
2021/06/08 20:34:04;;;;;;;11.43;5.38;;;22.50;65.30;;;;;;10418012;28;20025;-61
2021/06/08 20:39:05;;;;;;;9.55;5.60;;;22.50;65.10;;;;;;10418094;28;20477;-62
2021/06/08 20:44:06;;;;;;;6.82;5.38;;;22.40;64.80;;;;;;10418818;28;20044;-62
2021/06/08 20:49:09;;;;;;;8.27;6.15;;;22.40;64.70;;;;;;10418057;28;20371;-62
2021/06/08 20:54:10;;;;;;;8.30;6.75;;;22.40;64.60;;;;;;10417867;28;20033;-62
2021/06/08 20:59:12;;;;;;;7.70;5.40;;;22.40;64.50;;;;;;10417606;28;20393;-62
2021/06/08 21:04:12;;;;;;;8.00;5.43;;;22.40;64.50;;;;;;10417282;28;20402;-62
2021/06/08 21:09:13;;;;;;;6.70;5.95;;;22.40;64.50;;;;;;10418477;28;20033;-62
2021/06/08 21:14:14;;;;;;;9.00;5.88;;;22.40;64.50;;;;;;10404967;28;20119;-62
2021/06/08 21:19:14;;;;;;;6.82;6.03;;;22.40;64.50;;;;;;10417919;28;20038;-62
2021/06/08 21:24:15;;;;;;;7.47;5.15;;;22.40;64.50;;;;;;10417205;28;20033;-62
2021/06/08 21:29:16;;;;;;;6.38;5.78;;;22.40;64.40;;;;;;10417414;28;20064;-62
2021/06/08 21:34:16;;;;;;;6.45;5.57;;;22.40;64.40;;;;;;10416251;28;20604;-62
2021/06/08 21:39:17;;;;;;;6.57;5.80;;;22.40;64.30;;;;;;10416805;28;20136;-62
2021/06/08 21:44:19;;;;;;;7.15;6.00;;;22.40;64.30;;;;;;10424948;28;20042;-62
2021/06/08 21:49:19;;;;;;;6.68;5.47;;;22.40;64.20;;;;;;10416757;28;20028;-62
2021/06/08 21:54:20;;;;;;;6.22;5.55;;;22.30;64.10;;;;;;10416399;28;20072;-62
2021/06/08 21:59:21;;;;;;;6.80;5.22;;;22.30;64.10;;;;;;10416444;28;20025;-62
2021/06/08 22:04:24;;;;;;;7.10;5.43;;;22.30;64.10;;;;;;10414938;28;20033;-62
2021/06/08 22:09:25;;;;;;;8.05;5.57;;;22.30;64.10;;;;;;10415997;28;20025;-62
2021/06/08 22:14:26;;;;;;;6.13;5.47;;;22.30;64.10;;;;;;10430547;28;20037;-62
2021/06/08 22:19:27;;;;;;;7.38;5.60;;;22.30;64.00;;;;;;10415495;28;20397;-62
2021/06/08 22:24:27;;;;;;;6.28;5.60;;;22.30;64.00;;;;;;10414972;28;20185;-62
2021/06/08 22:29:28;;;;;;;7.32;6.57;;;22.30;64.00;;;;;;10414089;28;20101;-62
2021/06/08 22:34:29;;;;;;;7.20;5.70;;;22.30;64.00;;;;;;10414934;28;20033;-62
2021/06/08 22:39:29;;;;;;;9.00;6.63;;;22.30;63.90;;;;;;10414845;28;20084;-62
2021/06/08 22:44:30;;;;;;;6.38;5.78;;;22.30;63.90;;;;;;10415277;28;20091;-62
2021/06/08 22:49:31;;;;;;;7.45;6.32;;;22.30;63.80;;;;;;10412657;28;20351;-62
2021/06/08 22:54:32;;;;;;;7.63;5.72;;;22.30;63.80;;;;;;10414458;28;20398;-62
2021/06/08 22:59:33;;;;;;;6.63;5.95;;;22.30;64.30;;;;;;10414214;28;20056;-62
2021/06/08 23:04:34;;;;;;;6.05;5.45;;;22.30;63.80;;;;;;10414203;28;20040;-62
2021/06/08 23:09:35;;;;;;;6.82;5.90;;;22.30;63.80;;;;;;10414246;28;20036;-62
2021/06/08 23:14:35;;;;;;;6.68;5.65;;;22.20;63.70;;;;;;10413935;28;20547;-62
2021/06/08 23:19:37;;;;;;;6.38;5.78;;;22.20;63.60;;;;;;10412875;28;20378;-62
2021/06/08 23:24:37;;;;;;;6.95;6.25;;;22.20;63.60;;;;;;10413858;28;20083;-62
2021/06/08 23:29:38;;;;;;;6.30;5.70;;;22.20;63.60;;;;;;10413478;28;20076;-62
2021/06/08 23:34:39;;;;;;;7.28;6.63;;;22.20;63.60;;;;;;10413760;28;20061;-62
2021/06/08 23:39:39;;;;;;;6.43;5.82;;;22.20;63.60;;;;;;10413629;28;20081;-62
2021/06/08 23:44:40;;;;;;;9.77;7.03;;;22.20;63.60;;;;;;10415631;28;20103;-62
2021/06/08 23:49:41;;;;;;;7.80;6.13;;;22.20;63.50;;;;;;10413663;28;20021;-62
2021/06/08 23:54:42;;;;;;;8.88;6.68;;;22.20;63.50;;;;;;10412071;28;20041;-62
2021/06/08 23:59:42;;;;;;;6.72;6.13;;;22.20;63.40;;;;;;10415693;28;20037;-62
